Airfield :
LOGIN :

Register | Disclaimer

   EN    FR    IT 

 










Legend :    VFR   Marginal VFR   IFR   Intensive IFR   Very Intensive IFR
Visi :
Ceiling :
>= 8 km
>= 3000ft
5 to 8 km
1000 to 3000 ft
1500m to 5 km
500 to 1000 ft
800 to 1500m
200 to 500 ft
< 800m
< 200 ft
Symbols :   Thunderstorms  Fog  Heavy snow  Heavy precipitations  Wind > 20 kt
SIGMETs :     Misc.  Thunderstorms  Icing  Turbulence  Mountain Waves  Volcanic Ashes







- Airport Elevation : 157 ft
- IATA code : LIL
- Download approach charts


LFQQ - Lille Lesquin

CURRENT METAR :
  • 141830Z AUTO 20006KT 160V240 6000 +SNRA SCT008/// BKN014/// BKN020/// ///TCU 02/01 Q0991 TEMPO 22020G30KT 3000 SHRAGS BKN007 BKN030CB

EXPIRED METARs :
  • 141800Z AUTO 18007KT 9999 FEW039/// BKN049/// BKN072/// ///TCU 01/00 Q0991 TEMPO 22020G30KT 3000 SHRAGS BKN007 BKN030CB
  • 141730Z AUTO 17006KT 9999 -SNRA SCT014/// BKN029/// BKN047/// ///TCU 01/00 Q0991 TEMPO 22020G30KT 3000 SHRAGS BKN007 BKN030CB
  • 141700Z AUTO 23009KT 200V270 7000 -SNRA BKN016/// BKN032/// OVC110/// ///TCU 02/01 Q0992 TEMPO 3000 SHRA BKN013CB
  • 141630Z AUTO 26010KT 7000 -SNRA BKN016/// BKN023/// OVC100/// ///TCU 02/01 Q0991 TEMPO 3000 SHRA BKN013CB BECMG 19015KT
  • 141600Z AUTO 27010KT 7000 3400 RA BKN012/// BKN018/// OVC100/// ///TCU 03/01 Q0992 TEMPO 3000 SHRA BKN013CB BECMG 19015KT

TAF TAF LFQQ
Valid from the 14 at 18:00 until the 16 at 00:00 UTC


141700Z 1418/1524 22010G20KT 9999 BKN030
TEMPO 1418/1512 22020G30KT 3000 SHRAGS BKN007 BKN030CB
BECMG 1512/1515 31010KT
TEMPO 1515/1524 31010G20KT 3000 SHRA BKN007 BKN030
ATIS : +33 3 20 16 19 54
No reported NOTAMs for that airfield.
2 SIGMETs reported for the Paris FIR (LFFF) :
 
Embedded thunderstorms
LFFF SIGMET 12 VALID 141730/141930 LFPW
LFFF PARIS FIR/UIR EMBD TS OBS AT 1715Z WI N4900 W00015 - N5000 W00015 - N5030 E00100 - N4945 E00130 - N4900 W00015 TOP FL290 MOV ESE 30KT NC=
Severe turbulence
LFFF SIGMET 11 VALID 141700/142000 LFPW
LFFF PARIS FIR/UIR SEV TURB OBS AT 1700Z S OF N4745 FL160/300 STNR NC=



MET'MAP, your aeronautical weather chart ! - Copyright ORBIFLY December 2007 - Disclaimer

ORBIFLY MET'MAP TEAM :

Programming & Development : Alexandra Zaïnal
Concept & Development : Baudouin d'Aumeries
Co-Development & Prog : Marc-Olivier Méhu
Technical & hardware support : Manuel Goepfert

Contact : metmap@orbifly.com




SOURCES & CREDITS :

   NOAA